Terminal Aerodrome Forecast
Issued by NWS Duluth, MN

Home | Current Version | Previous Version | Text Only | Print | Product List | Glossary On
Versions: 1 2 3 4 5 6 7 8 9 10 11 12 13 14 15 16 17 18 19 20 21 22 23 24 25 26 27
000
FTUS43 KDLH 200538
TAFDLH
TAF
KDLH 200538Z 2006/2106 09009KT P6SM BKN120
     FM201400 09014G21KT P6SM BKN100
     FM202000 08015G25KT P6SM -SHRA SCT015 OVC070
     FM202300 08014G22KT 4SM RA BR SCT007 OVC015
     FM210100 08014G21KT 2SM RA BR SCT003 OVC007=

USA.gov is the U.S. government's official web portal to all federal, state and local government web resources and services.